Time;durP1;ratioP1;P1;durP2;ratioP2;P2;SDS_P1;SDS_P2;PMS_P1;PMS_P2;Temp;Humidity;BMP_temperature;BMP_pressure;BME280_temperature;BME280_humidity;BME280_pressure;Samples;Min_cycle;Max_cycle;Signal;HPM_P1;HPM_P2
2021/07/23 00:00:10;;;;;;;15.78;13.15;;;;;;;19.37;65.23;100719.56;128238;1096;22369;-77
2021/07/23 00:03:00;;;;;;;14.73;12.93;;;;;;;19.34;65.24;100709.28;128184;1098;22390;-77
2021/07/23 00:05:29;;;;;;;16.65;13.48;;;;;;;19.36;65.16;100714.41;128171;1098;22385;-77
2021/07/23 00:07:59;;;;;;;14.08;12.68;;;;;;;19.34;65.37;100708.45;128276;1097;22393;-77
2021/07/23 00:10:29;;;;;;;15.70;13.95;;;;;;;19.33;65.21;100706.83;128241;1097;22462;-77
2021/07/23 00:12:58;;;;;;;14.00;12.43;;;;;;;19.31;65.52;100712.38;128085;1098;24501;-77
2021/07/23 00:15:28;;;;;;;15.58;13.45;;;;;;;19.31;65.28;100706.21;127955;1098;22363;-76
2021/07/23 00:17:57;;;;;;;15.13;13.63;;;;;;;19.28;65.68;100705.59;127975;1098;22369;-77
2021/07/23 00:20:27;;;;;;;16.33;14.08;;;;;;;19.27;65.55;100712.00;127947;1098;23252;-76
2021/07/23 00:22:57;;;;;;;15.28;13.75;;;;;;;19.25;65.85;100711.38;127972;1098;22364;-76
2021/07/23 00:25:26;;;;;;;15.68;13.13;;;;;;;19.23;66.13;100708.12;127989;1098;22878;-76
2021/07/23 00:27:57;;;;;;;15.15;13.38;;;;;;;19.23;65.94;100707.30;128023;1098;24657;-76
2021/07/23 00:30:28;;;;;;;13.35;12.05;;;;;;;19.23;66.16;100707.30;127949;1098;22359;-77
2021/07/23 00:32:58;;;;;;;17.75;13.45;;;;;;;19.24;65.93;100711.61;127949;1097;22360;-77
2021/07/23 00:35:28;;;;;;;14.35;12.95;;;;;;;19.23;65.92;100704.63;128158;1096;22384;-77
2021/07/23 00:37:59;;;;;;;15.35;12.40;;;;;;;19.22;66.23;100703.77;128147;1098;22362;-76
2021/07/23 00:40:29;;;;;;;14.33;12.73;;;;;;;19.23;66.18;100709.98;127963;1096;22369;-76
2021/07/23 00:43:00;;;;;;;14.93;13.05;;;;;;;19.22;65.94;100710.99;128186;1097;22408;-77
2021/07/23 00:45:30;;;;;;;16.73;13.20;;;;;;;19.20;66.32;100713.91;127945;1098;22370;-77
2021/07/23 00:48:01;;;;;;;14.93;13.43;;;;;;;19.18;66.21;100713.28;128184;1098;22366;-76
2021/07/23 00:50:34;;;;;;;17.45;14.15;;;;;;;19.14;66.23;100713.94;128169;1098;22376;-76
2021/07/23 00:53:04;;;;;;;14.70;13.18;;;;;;;19.11;66.19;100715.19;128075;1098;22389;-76
2021/07/23 00:55:35;;;;;;;16.67;13.33;;;;;;;19.10;66.34;100710.88;128156;1098;22389;-76
2021/07/23 00:58:06;;;;;;;14.78;13.30;;;;;;;19.09;66.40;100711.89;128233;1096;22382;-77
2021/07/23 01:00:39;;;;;;;17.40;15.00;;;;;;;19.05;66.48;100718.72;128148;1098;22693;-77
2021/07/23 01:03:10;;;;;;;15.00;13.45;;;;;;;18.94;66.75;100711.38;128035;1098;22382;-76
2021/07/23 01:05:40;;;;;;;14.88;13.33;;;;;;;18.83;66.53;100720.06;128317;1098;22373;-77
2021/07/23 01:08:09;;;;;;;16.30;14.13;;;;;;;18.72;66.99;100718.88;128213;1097;22609;-77
2021/07/23 01:10:39;;;;;;;15.00;13.53;;;;;;;18.62;67.06;100713.94;128234;1098;22383;-76
2021/07/23 01:13:22;;;;;;;16.03;14.05;;;;;;;18.56;67.72;100715.63;128238;1098;22366;-77
2021/07/23 01:15:52;;;;;;;17.15;15.45;;;;;;;18.53;67.81;100704.53;128194;1098;22382;-76
2021/07/23 01:18:24;;;;;;;17.03;13.68;;;;;;;18.53;67.88;100710.70;128179;1097;22371;-76
2021/07/23 01:20:58;;;;;;;14.90;13.35;;;;;;;18.57;68.55;100713.77;128210;1098;22359;-76
2021/07/23 01:23:30;;;;;;;15.68;14.18;;;;;;;18.59;68.17;100703.66;128225;1097;22838;-76
2021/07/23 01:26:04;;;;;;;14.50;12.93;;;;;;;18.63;68.73;100704.91;128173;1096;22366;-75
2021/07/23 01:28:37;;;;;;;15.03;13.53;;;;;;;18.63;68.05;100712.11;128282;1098;24804;-76
2021/07/23 01:31:10;;;;;;;15.45;13.23;;;;;;;18.63;68.36;100704.91;128188;1098;22795;-76
2021/07/23 01:33:41;;;;;;;15.00;13.50;;;;;;;18.60;67.80;100704.51;128239;1098;22359;-76
2021/07/23 01:36:11;;;;;;;14.70;13.20;;;;;;;18.51;67.76;100706.58;128157;1096;22459;-75
2021/07/23 01:38:50;;;;;;;15.03;13.53;;;;;;;18.44;68.25;100711.14;128223;1098;22363;-77
2021/07/23 01:41:23;;;;;;;14.63;12.73;;;;;;;18.38;68.42;100706.63;128247;1098;22379;-76
2021/07/23 01:43:55;;;;;;;15.00;13.50;;;;;;;18.33;68.36;100713.44;128189;1098;24592;-77
2021/07/23 01:46:25;;;;;;;16.15;14.53;;;;;;;18.29;68.42;100704.20;128226;1097;22359;-76
2021/07/23 01:48:54;;;;;;;14.28;12.95;;;;;;;18.24;68.70;100709.34;128217;1097;22360;-76
2021/07/23 01:51:34;;;;;;;14.43;13.00;;;;;;;18.20;69.01;100716.14;128218;1098;22379;-77
2021/07/23 01:54:04;;;;;;;14.40;13.10;;;;;;;18.17;68.78;100708.53;128225;1098;22347;-77
2021/07/23 01:56:35;;;;;;;16.80;14.63;;;;;;;18.14;69.23;100711.63;128162;1098;22379;-76
2021/07/23 01:59:10;;;;;;;15.15;13.53;;;;;;;18.15;69.35;100705.23;128203;1098;22382;-76
2021/07/23 02:01:41;;;;;;;15.43;13.93;;;;;;;18.17;69.39;100700.52;128201;1098;22387;-77
2021/07/23 02:04:35;;;;;;;14.90;13.30;;;;;;;18.21;69.55;100701.73;128198;1098;22359;-76
2021/07/23 02:07:04;;;;;;;14.93;13.40;;;;;;;18.26;69.38;100698.41;128172;1098;22356;-76
2021/07/23 02:09:34;;;;;;;15.75;14.15;;;;;;;18.30;69.64;100705.02;128194;1098;22353;-76
2021/07/23 02:12:05;;;;;;;14.83;13.48;;;;;;;18.32;69.16;100700.25;128194;1098;24508;-77
2021/07/23 02:14:58;;;;;;;13.43;12.13;;;;;;;18.35;69.10;100692.63;128163;1098;22378;-77
2021/07/23 02:17:29;;;;;;;14.70;13.30;;;;;;;18.39;69.09;100690.35;128276;1097;22379;-75
2021/07/23 02:19:59;;;;;;;14.23;12.88;;;;;;;18.42;69.10;100689.12;128258;1098;22392;-76
2021/07/23 02:22:32;;;;;;;14.33;12.83;;;;;;;18.44;68.90;100693.23;128238;1098;22805;-77
2021/07/23 02:25:04;;;;;;;13.98;12.68;;;;;;;18.45;68.81;100686.02;128201;1098;22382;-76
2021/07/23 02:27:37;;;;;;;14.38;12.95;;;;;;;18.45;68.74;100694.86;128228;1098;22385;-76
2021/07/23 02:30:07;;;;;;;14.98;13.60;;;;;;;18.44;69.08;100692.42;128209;1096;24489;-76
2021/07/23 02:32:42;;;;;;;15.25;13.75;;;;;;;18.44;69.13;100695.91;128161;1098;24533;-76
2021/07/23 02:35:13;;;;;;;15.50;14.10;;;;;;;18.43;69.16;100694.27;128198;1098;22381;-76
2021/07/23 02:38:03;;;;;;;14.73;13.25;;;;;;;18.42;68.95;100692.61;128217;1098;24203;-76
2021/07/23 02:40:35;;;;;;;15.45;13.95;;;;;;;18.44;69.02;100692.42;128201;1096;22379;-77
2021/07/23 02:43:05;;;;;;;15.35;13.93;;;;;;;18.44;68.84;100695.91;128258;1098;25011;-76
2021/07/23 02:45:39;;;;;;;14.60;13.20;;;;;;;18.46;68.96;100693.00;128171;1098;22355;-76
2021/07/23 02:48:09;;;;;;;15.70;14.18;;;;;;;18.46;69.07;100687.66;128196;1098;24256;-76
2021/07/23 02:50:40;;;;;;;14.78;13.35;;;;;;;18.45;68.93;100697.54;128187;1098;22363;-76
2021/07/23 02:53:10;;;;;;;15.53;13.98;;;;;;;18.41;68.48;100682.95;128217;1098;22360;-77
2021/07/23 02:55:40;;;;;;;15.23;13.65;;;;;;;18.40;68.83;100688.53;128182;1098;22452;-77
2021/07/23 02:58:09;;;;;;;16.40;14.05;;;;;;;18.40;68.88;100688.53;128205;1098;22359;-76
2021/07/23 03:00:39;;;;;;;14.98;13.45;;;;;;;18.40;68.86;100683.17;128178;1097;24102;-76
2021/07/23 03:03:09;;;;;;;18.93;14.50;;;;;;;18.41;69.11;100690.16;128219;1098;22372;-78
2021/07/23 03:05:40;;;;;;;15.78;14.23;;;;;;;18.43;68.93;100688.11;128227;1098;22364;-76
2021/07/23 03:08:17;;;;;;;17.45;14.05;;;;;;;18.43;68.76;100688.92;128200;1098;22379;-78
2021/07/23 03:10:56;;;;;;;16.57;14.87;;;;;;;18.44;68.61;100684.39;128169;1097;22364;-77
2021/07/23 03:13:31;;;;;;;20.23;13.85;;;;;;;18.44;68.78;100687.06;128176;1098;22382;-76
2021/07/23 03:16:11;;;;;;;17.67;14.50;;;;;;;18.43;68.71;100688.11;128217;1098;22359;-77
2021/07/23 03:18:42;;;;;;;15.90;13.70;;;;;;;18.41;69.15;100685.63;128186;1097;22382;-77
2021/07/23 03:21:13;;;;;;;15.85;14.25;;;;;;;18.43;69.31;100677.41;128238;1098;25030;-77
2021/07/23 03:23:45;;;;;;;15.75;14.13;;;;;;;18.42;68.76;100681.91;128169;1097;22376;-77
2021/07/23 03:26:15;;;;;;;19.63;17.10;;;;;;;18.43;68.94;100672.06;128179;1098;22369;-77
2021/07/23 03:28:48;;;;;;;20.30;15.90;;;;;;;18.45;69.10;100672.65;128172;1098;22364;-77
2021/07/23 03:31:30;;;;;;;17.23;14.13;;;;;;;18.45;68.87;100667.30;128164;1096;22382;-76
2021/07/23 03:34:07;;;;;;;16.43;14.63;;;;;;;18.46;68.72;100666.25;128000;1098;22367;-77
2021/07/23 03:36:58;;;;;;;16.30;14.60;;;;;;;18.47;68.96;100665.24;128160;1098;22385;-76
2021/07/23 03:39:51;;;;;;;21.03;15.15;;;;;;;18.47;68.42;100670.59;128160;1098;22364;-76
2021/07/23 03:42:24;;;;;;;17.83;14.50;;;;;;;18.49;68.57;100663.16;128270;1098;22378;-76
2021/07/23 03:45:14;;;;;;;15.70;14.25;;;;;;;18.50;68.46;100675.52;128213;1098;22366;-76
2021/07/23 03:47:45;;;;;;;16.63;14.93;;;;;;;18.51;68.79;100669.13;128225;1098;24508;-76
2021/07/23 03:50:16;;;;;;;21.83;15.33;;;;;;;18.53;68.68;100667.89;128207;1098;23115;-75
2021/07/23 03:52:55;;;;;;;18.53;15.18;;;;;;;18.55;68.63;100673.84;128180;1098;22376;-76
2021/07/23 03:55:54;;;;;;;16.95;14.58;;;;;;;18.55;68.47;100667.67;128169;1098;22462;-77
2021/07/23 03:58:33;;;;;;;17.20;14.78;;;;;;;18.52;68.23;100670.77;128209;1097;22366;-75
2021/07/23 04:01:07;;;;;;;17.48;14.35;;;;;;;18.52;68.06;100663.55;128176;1098;22385;-75
2021/07/23 04:03:38;;;;;;;18.07;14.93;;;;;;;18.53;67.81;100667.08;128243;1098;22359;-76
2021/07/23 04:06:10;;;;;;;16.03;13.95;;;;;;;18.55;68.05;100662.31;128221;1098;22364;-75
2021/07/23 04:08:41;;;;;;;15.95;14.15;;;;;;;18.55;68.08;100665.81;128173;1098;22365;-75
2021/07/23 04:11:15;;;;;;;16.73;14.55;;;;;;;18.56;67.89;100658.63;128148;1097;22467;-75
2021/07/23 04:13:47;;;;;;;18.78;13.93;;;;;;;18.57;67.58;100669.10;128188;1098;24609;-76
2021/07/23 04:16:17;;;;;;;14.88;13.23;;;;;;;18.58;67.85;100670.73;128195;1098;25018;-76
2021/07/23 04:18:47;;;;;;;15.97;14.27;;;;;;;18.61;67.66;100663.33;128257;1097;22401;-76
2021/07/23 04:21:37;;;;;;;17.50;14.88;;;;;;;18.63;67.82;100671.98;128189;1098;22363;-76
2021/07/23 04:24:18;;;;;;;16.73;14.83;;;;;;;18.65;67.39;100668.03;128197;1097;22363;-76
2021/07/23 04:26:48;;;;;;;17.55;13.33;;;;;;;18.66;67.64;100661.67;128256;1098;22385;-76
2021/07/23 04:29:19;;;;;;;21.08;16.35;;;;;;;18.68;67.44;100664.93;128237;1096;22797;-75
2021/07/23 04:31:48;;;;;;;17.23;14.33;;;;;;;18.69;67.39;100665.75;128214;1097;22404;-76
2021/07/23 04:34:19;;;;;;;17.15;14.40;;;;;;;18.70;67.39;100662.88;128247;1098;22362;-77
2021/07/23 04:36:49;;;;;;;18.93;15.03;;;;;;;18.71;67.71;100663.69;128223;1098;22360;-76
2021/07/23 04:39:38;;;;;;;21.63;14.25;;;;;;;18.73;67.69;100664.34;128199;1098;22363;-75
2021/07/23 04:42:10;;;;;;;16.38;14.68;;;;;;;18.75;67.37;100668.42;128161;1098;22367;-75
2021/07/23 04:44:40;;;;;;;16.08;13.08;;;;;;;18.75;67.33;100663.07;128142;1097;23185;-75
2021/07/23 04:47:10;;;;;;;17.83;13.60;;;;;;;18.73;67.23;100653.64;128242;1098;22632;-75
2021/07/23 04:49:42;;;;;;;16.45;14.53;;;;;;;18.72;66.83;100660.00;128209;1098;22392;-76
2021/07/23 04:52:38;;;;;;;16.23;14.08;;;;;;;18.71;67.12;100659.16;128067;1098;24202;-75
2021/07/23 04:55:27;;;;;;;16.08;14.23;;;;;;;18.73;67.39;100656.31;128153;1098;22414;-75
2021/07/23 04:58:13;;;;;;;19.95;15.08;;;;;;;18.77;66.97;100658.34;128142;1098;22387;-76
2021/07/23 05:00:45;;;;;;;15.90;14.15;;;;;;;18.85;67.01;100653.77;128185;1098;22370;-76
2021/07/23 05:03:15;;;;;;;21.37;15.73;;;;;;;18.92;67.14;100655.36;128205;1098;22378;-76
2021/07/23 05:05:46;;;;;;;21.60;15.90;;;;;;;18.99;66.76;100652.64;128194;1097;22372;-76
2021/07/23 05:08:16;;;;;;;18.93;15.65;;;;;;;19.05;66.88;100659.81;128071;1098;25814;-76
2021/07/23 05:10:46;;;;;;;21.73;15.18;;;;;;;19.10;66.97;100651.15;128212;1098;22366;-76
2021/07/23 05:13:17;;;;;;;25.60;16.70;;;;;;;19.15;66.91;100646.77;128148;1098;22814;-76
2021/07/23 05:15:47;;;;;;;22.80;15.80;;;;;;;19.21;66.57;100656.61;128149;1097;22388;-76
2021/07/23 05:18:18;;;;;;;20.73;16.38;;;;;;;19.29;66.71;100658.20;127925;1098;22369;-76
2021/07/23 05:20:48;;;;;;;20.10;14.70;;;;;;;19.34;66.27;100652.20;128267;1098;22388;-77
2021/07/23 05:23:18;;;;;;;18.40;14.75;;;;;;;19.39;66.36;100649.67;128166;1098;22369;-76
2021/07/23 05:25:48;;;;;;;21.83;15.25;;;;;;;19.43;65.95;100656.27;128225;1098;22379;-75
2021/07/23 05:28:19;;;;;;;21.70;15.30;;;;;;;19.48;66.43;100651.05;128202;1098;22391;-76
2021/07/23 05:31:06;;;;;;;24.50;14.38;;;;;;;19.56;65.91;100653.47;128158;1098;22391;-76
2021/07/23 05:33:37;;;;;;;17.50;13.53;;;;;;;19.59;66.00;100658.36;128163;1098;22388;-76
2021/07/23 05:36:06;;;;;;;18.33;15.10;;;;;;;19.66;65.59;100651.14;128191;1096;22246;-76
2021/07/23 05:38:36;;;;;;;14.68;13.13;;;;;;;19.76;65.50;100650.64;128201;1096;25165;-75
2021/07/23 05:41:10;;;;;;;15.98;14.05;;;;;;;19.86;65.05;100650.95;128184;1098;22375;-75
2021/07/23 05:43:39;;;;;;;13.80;12.40;;;;;;;19.96;64.44;100648.58;128182;1098;22369;-76
2021/07/23 05:46:09;;;;;;;16.35;12.68;;;;;;;20.05;63.72;100649.09;128161;1098;22406;-76
2021/07/23 05:48:40;;;;;;;14.67;13.17;;;;;;;20.14;63.68;100642.39;128208;1098;22373;-75
2021/07/23 05:51:12;;;;;;;18.40;12.10;;;;;;;20.21;62.96;100648.49;128175;1098;22403;-76
2021/07/23 05:53:41;;;;;;;22.10;12.57;;;;;;;20.30;62.87;100646.34;128177;1098;22366;-75
2021/07/23 05:56:11;;;;;;;15.30;12.30;;;;;;;20.39;62.45;100650.37;128166;1096;22403;-76
2021/07/23 05:58:41;;;;;;;19.60;12.90;;;;;;;20.50;61.95;100651.47;128156;1098;22385;-76
2021/07/23 06:01:10;;;;;;;18.55;13.33;;;;;;;20.60;61.86;100649.09;128184;1097;24259;-75
2021/07/23 06:03:40;;;;;;;15.73;12.63;;;;;;;20.68;61.82;100648.77;128200;1096;24259;-75
2021/07/23 06:06:10;;;;;;;17.35;12.45;;;;;;;20.77;61.24;100651.97;128170;1098;22376;-77
2021/07/23 06:09:01;;;;;;;15.20;12.33;;;;;;;20.88;61.20;100653.05;128230;1096;22370;-76
2021/07/23 06:11:30;;;;;;;15.33;13.23;;;;;;;20.96;61.24;100654.58;128020;1096;25017;-76
2021/07/23 06:14:00;;;;;;;19.85;13.48;;;;;;;21.07;61.14;100651.94;128239;1096;22667;-77
2021/07/23 06:16:30;;;;;;;14.63;13.20;;;;;;;21.17;60.70;100653.26;128206;1098;22381;-77
2021/07/23 06:19:00;;;;;;;15.75;13.35;;;;;;;21.27;60.40;100650.83;128203;1096;24262;-77
2021/07/23 06:21:30;;;;;;;16.20;11.85;;;;;;;21.36;60.05;100652.98;128224;1098;22386;-77
2021/07/23 06:24:00;;;;;;;15.45;13.30;;;;;;;21.48;59.93;100663.72;128180;1098;22372;-76
2021/07/23 06:26:29;;;;;;;15.83;13.13;;;;;;;21.61;59.76;100647.38;128165;1098;22391;-77
2021/07/23 06:28:59;;;;;;;15.73;11.50;;;;;;;21.71;59.17;100654.04;128158;1098;22367;-77
2021/07/23 06:31:28;;;;;;;14.00;12.38;;;;;;;21.86;58.70;100662.47;128201;1097;22376;-77
2021/07/23 06:33:58;;;;;;;15.53;12.63;;;;;;;21.97;58.58;100656.25;128184;1098;22373;-76
2021/07/23 06:36:28;;;;;;;17.73;11.95;;;;;;;22.09;58.09;100654.38;127904;1097;23148;-77
2021/07/23 06:38:57;;;;;;;15.65;13.03;;;;;;;22.23;57.64;100660.34;127893;1098;24275;-77
2021/07/23 06:41:28;;;;;;;27.00;13.58;;;;;;;22.33;57.14;100648.97;127965;1101;24278;-78
2021/07/23 06:43:58;;;;;;;14.05;12.40;;;;;;;22.46;57.01;100656.77;127956;1098;24847;-76
2021/07/23 06:46:28;;;;;;;18.10;13.30;;;;;;;22.62;56.29;100649.80;127924;1098;22409;-75
2021/07/23 06:48:57;;;;;;;17.83;12.83;;;;;;;22.82;55.82;100649.36;127900;1098;23354;-77
2021/07/23 06:51:27;;;;;;;13.97;12.57;;;;;;;23.00;55.48;100643.80;127976;1098;22378;-78
2021/07/23 06:53:59;;;;;;;22.25;12.60;;;;;;;23.15;54.62;100648.63;127965;1098;24521;-77
2021/07/23 06:56:28;;;;;;;15.60;11.88;;;;;;;23.22;53.83;100651.97;128185;1098;22378;-76
2021/07/23 06:58:58;;;;;;;19.60;12.08;;;;;;;23.34;53.63;100654.61;128193;1098;22375;-76
2021/07/23 07:01:27;;;;;;;14.55;11.20;;;;;;;23.39;52.86;100654.70;128162;1098;22373;-77
2021/07/23 07:03:57;;;;;;;13.73;11.45;;;;;;;23.46;52.19;100651.84;128197;1097;22842;-77
2021/07/23 07:06:27;;;;;;;13.08;11.78;;;;;;;23.50;52.12;100650.28;128210;1096;22364;-77
2021/07/23 07:08:56;;;;;;;13.10;11.85;;;;;;;23.55;51.38;100655.73;128205;1098;22385;-77
2021/07/23 07:11:26;;;;;;;13.65;12.25;;;;;;;23.66;51.44;100652.15;128238;1098;22385;-77
2021/07/23 07:13:55;;;;;;;21.55;13.70;;;;;;;23.77;51.33;100650.44;128222;1098;22371;-77
2021/07/23 07:16:25;;;;;;;19.75;13.28;;;;;;;23.88;51.41;100649.51;128188;1098;22362;-76
2021/07/23 07:18:55;;;;;;;15.65;13.18;;;;;;;23.98;50.85;100648.02;128236;1095;22388;-77
2021/07/23 07:21:24;;;;;;;17.58;11.90;;;;;;;24.06;50.67;100652.97;128224;1098;22385;-79
2021/07/23 07:23:54;;;;;;;13.68;12.33;;;;;;;24.23;50.63;100636.75;128025;1098;22350;-79
2021/07/23 07:26:24;;;;;;;14.80;11.48;;;;;;;24.39;50.22;100646.64;128250;1098;24177;-83
2021/07/23 07:28:54;;;;;;;18.70;11.98;;;;;;;24.57;49.97;100649.05;128270;1098;24524;-78
2021/07/23 07:31:24;;;;;;;13.60;12.23;;;;;;;24.74;49.26;100654.37;128216;1098;23489;-77
2021/07/23 07:33:54;;;;;;;13.13;11.93;;;;;;;24.81;48.89;100654.98;128229;1097;22826;-78
2021/07/23 07:36:23;;;;;;;11.93;10.60;;;;;;;24.88;48.94;100652.88;128243;1098;22382;-77
2021/07/23 07:38:53;;;;;;;15.08;11.63;;;;;;;24.93;48.90;100648.62;128215;1098;22395;-77
2021/07/23 07:41:22;;;;;;;12.25;10.40;;;;;;;24.97;48.65;100647.03;128227;1098;24256;-80
2021/07/23 07:43:52;;;;;;;12.38;11.08;;;;;;;24.96;48.19;100642.67;128320;1098;22362;-82
2021/07/23 07:46:24;;;;;;;13.60;11.33;;;;;;;25.03;48.65;100644.12;128308;1098;24243;-88
2021/07/23 07:49:13;;;;;;;;;;;;;;;25.13;48.19;100637.20;128335;1098;22365;-83
2021/07/23 07:51:43;;;;;;;12.65;11.05;;;;;;;25.20;48.54;100641.31;128246;1098;21279;-78
2021/07/23 07:54:13;;;;;;;13.13;10.00;;;;;;;25.31;47.66;100640.31;128253;1098;22359;-78
2021/07/23 07:56:44;;;;;;;10.70;9.70;;;;;;;25.34;47.01;100647.10;128267;1098;22359;-78
2021/07/23 07:59:13;;;;;;;14.23;9.75;;;;;;;25.39;46.35;100647.16;128007;1098;22361;-78
2021/07/23 08:01:43;;;;;;;11.15;10.05;;;;;;;25.51;45.91;100646.95;128164;1097;22369;-78
2021/07/23 08:04:13;;;;;;;22.75;10.23;;;;;;;25.62;45.60;100645.94;128184;1096;22368;-78
2021/07/23 08:06:45;;;;;;;14.20;9.98;;;;;;;25.71;45.00;100643.57;128223;1096;22368;-78
2021/07/23 08:09:15;;;;;;;12.20;9.45;;;;;;;25.83;44.92;100656.95;128203;1096;22359;-78
2021/07/23 08:11:45;;;;;;;10.30;9.23;;;;;;;25.90;44.34;100646.70;128305;1098;22381;-79
2021/07/23 08:14:14;;;;;;;12.18;10.03;;;;;;;25.98;44.27;100648.89;128209;1098;24507;-79
2021/07/23 08:16:44;;;;;;;14.38;10.78;;;;;;;26.18;44.27;100645.47;128163;1098;22386;-77
2021/07/23 08:19:14;;;;;;;11.20;10.05;;;;;;;26.41;43.78;100655.04;128189;1097;22381;-77
2021/07/23 08:21:44;;;;;;;23.33;11.33;;;;;;;26.55;43.54;100649.96;128211;1098;22389;-77
2021/07/23 08:24:13;;;;;;;11.35;10.33;;;;;;;26.66;43.17;100649.73;128199;1098;22360;-77
2021/07/23 08:26:43;;;;;;;11.80;10.28;;;;;;;26.95;42.42;100651.94;128165;1098;22369;-77
2021/07/23 08:29:13;;;;;;;11.97;9.43;;;;;;;27.17;41.50;100657.95;128189;1095;22350;-77
2021/07/23 08:31:42;;;;;;;25.78;14.53;;;;;;;27.30;41.85;100644.95;128232;1098;22388;-78
2021/07/23 08:34:12;;;;;;;15.45;9.98;;;;;;;27.42;41.01;100640.88;128320;1098;22364;-79
2021/07/23 08:36:42;;;;;;;26.35;15.23;;;;;;;27.62;40.50;100645.45;128232;1098;22366;-78
2021/07/23 08:39:11;;;;;;;13.98;9.38;;;;;;;27.71;40.44;100642.98;128188;1098;22369;-77
2021/07/23 08:41:41;;;;;;;14.60;9.20;;;;;;;27.93;39.89;100645.41;128199;1098;22386;-77
2021/07/23 08:44:15;;;;;;;13.03;8.45;;;;;;;28.11;39.26;100641.27;128222;1098;22693;-77
2021/07/23 08:46:45;;;;;;;20.13;8.58;;;;;;;28.05;38.44;100640.45;128230;1098;22350;-77
2021/07/23 08:49:16;;;;;;;9.13;7.75;;;;;;;27.98;38.32;100634.52;128214;1098;24193;-78
2021/07/23 08:51:52;;;;;;;14.38;8.50;;;;;;;27.95;38.47;100643.21;128198;1095;22961;-79
2021/07/23 08:54:22;;;;;;;9.40;8.08;;;;;;;28.11;38.69;100631.20;128273;1097;25217;-79
2021/07/23 08:56:52;;;;;;;9.78;8.78;;;;;;;28.32;38.18;100625.67;128016;1098;25788;-77
2021/07/23 08:59:21;;;;;;;13.00;8.90;;;;;;;28.61;38.21;100626.63;128176;1098;22361;-76
2021/07/23 09:02:04;;;;;;;10.03;9.03;;;;;;;28.73;37.25;100620.86;128088;1098;22369;-77
2021/07/23 09:04:37;;;;;;;9.25;8.13;;;;;;;28.77;36.91;100631.98;127976;1098;24240;-78
2021/07/23 09:07:15;;;;;;;9.13;8.27;;;;;;;28.72;36.68;100629.28;127959;1098;22367;-77
2021/07/23 09:10:04;;;;;;;11.48;9.28;;;;;;;28.52;36.64;100627.50;128177;1098;22514;-77
2021/07/23 09:12:50;;;;;;;10.38;8.10;;;;;;;28.14;36.53;100630.66;128223;1098;22377;-76
2021/07/23 09:15:44;;;;;;;9.78;8.15;;;;;;;27.68;37.52;100632.67;127997;1098;22460;-77
2021/07/23 09:18:27;;;;;;;14.38;8.75;;;;;;;27.35;38.23;100626.75;128072;1098;24688;-78
2021/07/23 09:21:07;;;;;;;61.95;13.80;;;;;;;27.10;38.92;100629.45;128236;1098;24556;-77
2021/07/23 09:23:40;;;;;;;13.15;8.78;;;;;;;26.97;38.68;100623.48;127984;1098;22389;-77
2021/07/23 09:26:11;;;;;;;15.55;9.65;;;;;;;26.83;38.52;100627.00;128227;1098;22372;-77
2021/07/23 09:28:45;;;;;;;12.23;8.80;;;;;;;26.62;39.09;100621.52;128206;1098;22392;-77
2021/07/23 09:31:28;;;;;;;12.08;9.40;;;;;;;26.46;38.62;100633.40;128252;1096;25030;-77
2021/07/23 09:34:05;;;;;;;9.13;7.78;;;;;;;26.29;39.45;100631.72;128194;1098;22663;-77
2021/07/23 09:36:34;;;;;;;9.43;8.45;;;;;;;26.19;39.14;100623.56;128162;1098;22392;-78
2021/07/23 09:39:24;;;;;;;11.80;8.53;;;;;;;26.07;39.59;100630.27;128201;1098;25812;-77
2021/07/23 09:42:02;;;;;;;10.45;8.95;;;;;;;25.98;39.59;100621.83;128220;1098;22852;-77
2021/07/23 09:44:31;;;;;;;10.68;8.50;;;;;;;25.95;39.72;100616.94;128295;1096;24266;-76
2021/07/23 09:47:01;;;;;;;17.43;13.08;;;;;;;25.95;39.80;100619.64;128188;1098;24265;-76
2021/07/23 09:49:30;;;;;;;11.30;10.13;;;;;;;26.16;39.61;100615.16;128181;1098;22390;-76
2021/07/23 09:52:03;;;;;;;11.05;9.08;;;;;;;26.53;39.70;100614.21;128248;1096;22388;-76
2021/07/23 09:54:34;;;;;;;7.93;7.20;;;;;;;26.71;38.76;100613.69;128236;1098;24514;-76
2021/07/23 09:57:07;;;;;;;;;;;;;;;26.84;38.39;100613.16;128317;1097;22664;-76
2021/07/23 09:59:37;;;;;;;9.48;8.48;;;;;;;26.99;38.20;100602.34;128192;1098;21276;-76
2021/07/23 10:02:17;;;;;;;9.35;8.30;;;;;;;27.03;38.18;100602.61;128192;1098;22376;-77
2021/07/23 10:05:04;;;;;;;9.53;8.53;;;;;;;26.93;38.17;100602.61;128296;1098;25037;-77
2021/07/23 10:07:42;;;;;;;9.58;8.48;;;;;;;26.82;38.32;100606.38;128333;1098;22372;-76
2021/07/23 10:10:13;;;;;;;12.73;10.45;;;;;;;26.61;38.95;100603.64;128303;1098;22399;-76
2021/07/23 10:12:44;;;;;;;;;;;;;;;26.35;38.97;100610.86;128256;1098;25061;-76
2021/07/23 10:15:14;;;;;;;12.55;9.28;;;;;;;26.17;40.03;100608.65;128249;1098;21362;-76
2021/07/23 10:17:44;;;;;;;11.03;9.60;;;;;;;26.04;40.68;100607.24;128249;1098;23132;-76
2021/07/23 10:20:19;;;;;;;11.18;9.58;;;;;;;25.93;40.95;100594.75;128231;1098;22369;-76
2021/07/23 10:22:51;;;;;;;15.50;12.28;;;;;;;25.83;41.37;100602.83;128229;1098;22378;-76
2021/07/23 10:25:26;;;;;;;20.68;17.10;;;;;;;25.74;41.68;100603.27;128220;1098;22369;-75
2021/07/23 10:27:56;;;;;;;17.20;10.70;;;;;;;25.68;41.88;100598.91;128253;1096;22474;-76
2021/07/23 10:30:32;;;;;;;11.00;9.88;;;;;;;25.55;42.08;100602.88;128270;1097;22391;-76
2021/07/23 10:33:05;;;;;;;14.25;9.90;;;;;;;25.44;42.05;100594.98;128239;1098;22369;-76
2021/07/23 10:35:35;;;;;;;17.53;12.03;;;;;;;25.33;42.17;100596.81;128230;1098;23148;-76
2021/07/23 10:38:06;;;;;;;18.40;10.70;;;;;;;25.27;42.43;100592.44;128170;1098;22394;-76
2021/07/23 10:40:41;;;;;;;10.67;9.60;;;;;;;25.20;42.39;100589.14;128232;1098;22401;-76
2021/07/23 10:43:37;;;;;;;10.83;9.65;;;;;;;25.12;43.13;100593.12;128253;1098;22362;-76
2021/07/23 10:46:07;;;;;;;13.10;9.83;;;;;;;25.05;43.45;100589.79;128224;1097;22371;-76
2021/07/23 10:48:49;;;;;;;16.40;10.90;;;;;;;25.01;43.08;100589.49;128191;1098;22379;-76
2021/07/23 10:51:45;;;;;;;15.85;12.43;;;;;;;25.00;43.42;100582.47;128247;1098;22383;-76
2021/07/23 10:54:23;;;;;;;27.90;15.28;;;;;;;25.01;43.28;100585.98;128202;1096;24807;-76
2021/07/23 10:57:19;;;;;;;16.30;11.05;;;;;;;24.99;42.52;100583.55;128190;1097;23332;-76
2021/07/23 10:59:50;;;;;;;13.60;12.20;;;;;;;24.94;42.88;100580.79;127940;1098;22377;-76
2021/07/23 11:02:41;;;;;;;14.25;11.20;;;;;;;24.88;42.58;100582.63;127989;1098;22371;-76
2021/07/23 11:05:15;;;;;;;13.38;12.03;;;;;;;24.80;42.52;100575.00;127910;1101;24514;-76
2021/07/23 11:07:45;;;;;;;13.40;11.08;;;;;;;24.75;42.37;100574.94;127947;1101;22365;-75
2021/07/23 11:10:20;;;;;;;11.90;10.60;;;;;;;24.72;42.86;100566.53;127544;1101;22398;-77
2021/07/23 11:12:50;;;;;;;10.43;9.40;;;;;;;24.69;43.03;100569.75;127938;1101;22817;-76
2021/07/23 11:15:22;;;;;;;13.23;11.93;;;;;;;24.57;42.65;100568.03;127892;1101;24531;-76
2021/07/23 11:17:57;;;;;;;13.75;10.33;;;;;;;24.48;43.00;100566.85;127909;1101;22355;-76
2021/07/23 11:20:39;;;;;;;12.45;11.15;;;;;;;24.43;43.03;100566.81;127585;1101;22369;-76
2021/07/23 11:23:14;;;;;;;16.40;14.65;;;;;;;24.44;43.74;100568.44;127892;1101;22369;-76
2021/07/23 11:26:02;;;;;;;13.83;11.83;;;;;;;24.41;43.42;100567.05;127890;1100;22377;-75
2021/07/23 11:28:46;;;;;;;11.90;10.68;;;;;;;24.43;43.66;100564.12;127878;1100;24514;-76
2021/07/23 11:31:35;;;;;;;14.30;10.75;;;;;;;24.43;43.20;100555.20;127872;1101;24262;-76